createdAt,value
2023-11-18T00:01:36.512Z,88.87
2023-11-18T00:04:03.671Z,89.10
2023-11-18T00:06:30.610Z,88.94
2023-11-18T00:08:57.516Z,89.07
2023-11-18T00:11:25.618Z,89.18
2023-11-18T00:13:55.177Z,89.48
2023-11-18T00:16:23.572Z,89.26
2023-11-18T00:18:50.456Z,89.41
2023-11-18T00:21:17.963Z,89.36
2023-11-18T00:23:46.316Z,89.38
2023-11-18T00:26:14.331Z,89.47
2023-11-18T00:28:43.113Z,89.42
2023-11-18T00:31:09.992Z,89.40
2023-11-18T00:33:36.863Z,89.03
2023-11-18T00:36:04.469Z,89.63
2023-11-18T00:38:31.628Z,89.37
2023-11-18T00:40:58.497Z,89.26
2023-11-18T00:43:25.315Z,89.38
2023-11-18T00:45:53.684Z,89.52
2023-11-18T00:48:20.554Z,89.37
2023-11-18T00:50:47.498Z,89.58
2023-11-18T00:53:18.520Z,89.60
2023-11-18T00:55:45.507Z,89.69
2023-11-18T00:58:12.565Z,89.50
2023-11-18T01:00:39.415Z,89.66
2023-11-18T01:03:07.662Z,89.63
2023-11-18T01:05:35.732Z,89.62
2023-11-18T01:08:02.540Z,89.49
2023-11-18T01:10:30.617Z,89.85
2023-11-18T01:12:58.878Z,89.68
2023-11-18T01:15:25.678Z,89.60
2023-11-18T01:17:52.620Z,89.66
2023-11-18T01:20:23.680Z,89.75
2023-11-18T01:22:50.853Z,89.55
2023-11-18T01:25:20.480Z,89.51
2023-11-18T01:27:50.276Z,89.49
2023-11-18T01:30:17.138Z,89.54
2023-11-18T01:32:44.220Z,89.46
2023-11-18T01:35:14.103Z,89.34
2023-11-18T01:37:42.484Z,89.39
2023-11-18T01:40:10.216Z,89.30
2023-11-18T01:42:38.253Z,89.12
2023-11-18T01:45:06.681Z,89.35
2023-11-18T01:47:34.913Z,89.53
2023-11-18T01:50:03.545Z,89.63
2023-11-18T01:52:31.783Z,89.76
2023-11-18T01:55:01.176Z,89.56
2023-11-18T01:57:28.292Z,89.43
2023-11-18T01:59:55.745Z,89.50
2023-11-18T02:02:22.780Z,89.47
2023-11-18T02:04:50.582Z,89.49
2023-11-18T02:07:18.234Z,89.44
2023-11-18T02:09:46.891Z,89.24
2023-11-18T02:12:24.547Z,89.45
2023-11-18T02:14:52.932Z,89.37
2023-11-18T02:17:25.370Z,89.45
2023-11-18T02:19:53.357Z,89.47
2023-11-18T02:22:22.968Z,89.29
2023-11-18T02:24:50.146Z,89.26
2023-11-18T02:27:21.550Z,89.63
2023-11-18T02:29:50.243Z,89.50
2023-11-18T02:32:25.216Z,89.63
2023-11-18T02:34:59.764Z,89.75
2023-11-18T02:37:28.473Z,89.71
2023-11-18T02:40:05.373Z,89.68
2023-11-18T02:42:34.386Z,89.52
2023-11-18T02:45:01.942Z,89.55
2023-11-18T02:47:29.113Z,89.29
2023-11-18T02:50:07.251Z,89.65
2023-11-18T02:52:36.746Z,89.46
2023-11-18T02:55:04.122Z,89.48
2023-11-18T02:57:31.029Z,89.60
2023-11-18T03:00:01.288Z,89.64
2023-11-18T03:02:31.139Z,89.82
2023-11-18T03:04:58.094Z,89.67
2023-11-18T03:07:25.070Z,89.79
2023-11-18T03:09:51.813Z,89.79
2023-11-18T03:12:18.652Z,89.55
2023-11-18T03:14:45.924Z,89.79
2023-11-18T03:17:14.522Z,89.90
2023-11-18T03:19:43.003Z,89.80
2023-11-18T03:22:09.814Z,90.20
2023-11-18T03:24:36.543Z,89.99
2023-11-18T03:27:03.768Z,89.90
2023-11-18T03:29:30.557Z,90.22
2023-11-18T03:31:58.530Z,90.06
2023-11-18T03:34:26.779Z,89.95
2023-11-18T03:36:53.572Z,90.07
2023-11-18T03:39:20.365Z,90.11
2023-11-18T03:41:47.149Z,89.79
2023-11-18T03:44:14.082Z,90.13
2023-11-18T03:46:42.387Z,89.97
2023-11-18T03:49:09.218Z,90.30
2023-11-18T03:51:37.357Z,89.91
2023-11-18T03:54:05.128Z,90.09
2023-11-18T03:56:31.970Z,90.28
2023-11-18T03:58:58.827Z,90.20
2023-11-18T04:01:29.385Z,90.18
2023-11-18T04:03:56.582Z,90.33
2023-11-18T04:06:25.358Z,90.13
2023-11-18T04:08:53.826Z,90.08
2023-11-18T04:11:20.920Z,90.17
2023-11-18T04:13:47.705Z,90.36
2023-11-18T04:16:16.539Z,90.13
2023-11-18T04:18:45.170Z,90.42
2023-11-18T04:21:13.120Z,90.37
2023-11-18T04:23:41.171Z,90.62
2023-11-18T04:26:10.444Z,90.66
2023-11-18T04:28:37.879Z,90.35
2023-11-18T04:31:06.662Z,90.45
2023-11-18T04:33:34.587Z,90.64
2023-11-18T04:36:01.592Z,90.42
2023-11-18T04:38:28.520Z,90.62
2023-11-18T04:40:55.752Z,90.67
2023-11-18T04:43:34.495Z,90.90
2023-11-18T04:46:06.861Z,90.79
2023-11-18T04:48:34.534Z,90.63
2023-11-18T04:51:02.638Z,90.79
2023-11-18T04:53:29.430Z,90.73
2023-11-18T04:55:56.439Z,91.04
2023-11-18T04:58:25.232Z,90.69
2023-11-18T05:00:52.539Z,90.96
2023-11-18T05:03:19.539Z,90.63
2023-11-18T05:05:47.919Z,90.77
2023-11-18T05:08:20.213Z,90.76
2023-11-18T05:10:48.580Z,90.85
2023-11-18T05:13:17.647Z,90.94
2023-11-18T05:15:46.816Z,90.85
2023-11-18T05:18:16.320Z,90.96
2023-11-18T05:20:43.705Z,90.87
2023-11-18T05:23:13.530Z,90.95
2023-11-18T05:25:41.715Z,91.24
2023-11-18T05:28:09.854Z,91.19
2023-11-18T05:30:37.088Z,91.13
2023-11-18T05:33:08.597Z,91.09
2023-11-18T05:35:36.239Z,91.06
2023-11-18T05:38:07.547Z,91.01
2023-11-18T05:40:37.274Z,91.09
2023-11-18T05:43:07.526Z,90.98
2023-11-18T05:45:54.253Z,91.13
2023-11-18T05:48:23.181Z,91.43
2023-11-18T05:50:49.986Z,91.26
2023-11-18T05:53:16.956Z,91.20
2023-11-18T05:55:43.713Z,91.23
2023-11-18T05:58:11.216Z,91.42
2023-11-18T06:00:41.699Z,91.22
2023-11-18T06:03:09.069Z,91.47
2023-11-18T06:05:37.280Z,91.36
2023-11-18T06:08:05.597Z,91.54
2023-11-18T06:10:33.270Z,91.22
2023-11-18T06:13:00.230Z,91.20
2023-11-18T06:15:28.851Z,91.25
2023-11-18T06:17:57.209Z,91.39
2023-11-18T06:20:24.903Z,91.28
2023-11-18T06:22:53.100Z,91.31
2023-11-18T06:25:20.196Z,91.38
2023-11-18T06:27:47.065Z,91.48
2023-11-18T06:30:14.212Z,91.27
2023-11-18T06:32:42.126Z,91.40
2023-11-18T06:35:12.682Z,91.43
2023-11-18T06:37:39.494Z,91.49
2023-11-18T06:40:17.430Z,91.50
2023-11-18T06:42:48.383Z,91.43
2023-11-18T06:45:16.147Z,91.43
2023-11-18T06:47:46.724Z,91.71
2023-11-18T06:50:17.358Z,91.52
2023-11-18T06:52:47.275Z,91.43
2023-11-18T06:55:16.463Z,91.25
2023-11-18T06:57:45.519Z,91.51
2023-11-18T07:00:15.480Z,91.51
2023-11-18T07:02:42.358Z,91.27
2023-11-18T07:05:09.969Z,91.29
2023-11-18T07:07:38.537Z,91.37
2023-11-18T07:10:06.751Z,91.35
2023-11-18T07:12:35.431Z,91.36
2023-11-18T07:15:02.210Z,91.59
2023-11-18T07:17:29.060Z,91.40
2023-11-18T07:19:56.809Z,91.50
2023-11-18T07:22:23.667Z,91.75
2023-11-18T07:24:50.414Z,91.52
2023-11-18T07:27:17.366Z,91.73
2023-11-18T07:29:46.345Z,91.53
2023-11-18T07:32:13.176Z,91.48
2023-11-18T07:34:40.102Z,91.42
2023-11-18T07:37:06.866Z,91.50
2023-11-18T07:39:45.831Z,91.52
2023-11-18T07:42:13.404Z,91.72
2023-11-18T07:44:41.764Z,91.49
2023-11-18T07:47:10.059Z,91.48
2023-11-18T07:49:37.120Z,91.36
2023-11-18T07:52:04.494Z,91.42
2023-11-18T07:54:31.761Z,91.50
2023-11-18T07:56:59.150Z,91.31
2023-11-18T07:59:26.081Z,91.61
2023-11-18T08:01:54.676Z,91.44
2023-11-18T08:04:23.079Z,91.53
2023-11-18T08:06:50.592Z,91.27
2023-11-18T08:09:23.827Z,91.42
2023-11-18T08:11:50.710Z,91.12
2023-11-18T08:14:18.306Z,91.34
2023-11-18T08:16:45.441Z,91.29
2023-11-18T08:19:12.306Z,91.48
2023-11-18T08:21:40.538Z,91.21
2023-11-18T08:24:09.238Z,91.57
2023-11-18T08:26:36.313Z,91.29
2023-11-18T08:29:03.528Z,91.81
2023-11-18T08:31:30.371Z,91.48
2023-11-18T08:33:57.413Z,91.52
2023-11-18T08:36:27.636Z,91.59
2023-11-18T08:38:57.705Z,91.47
2023-11-18T08:41:24.741Z,91.63
2023-11-18T08:43:51.953Z,91.61
2023-11-18T08:46:20.154Z,91.41
2023-11-18T08:48:49.237Z,91.56
2023-11-18T08:51:17.722Z,91.32
2023-11-18T08:53:44.683Z,91.28
2023-11-18T08:56:15.501Z,91.38
2023-11-18T08:58:43.708Z,91.50
2023-11-18T09:01:16.554Z,91.29
2023-11-18T09:03:54.136Z,91.59
2023-11-18T09:06:30.384Z,91.28
2023-11-18T09:08:59.153Z,91.47
2023-11-18T09:11:30.486Z,91.47
2023-11-18T09:14:02.383Z,91.52
2023-11-18T09:16:34.312Z,91.30
2023-11-18T09:19:03.770Z,91.36
2023-11-18T09:21:31.258Z,91.47
2023-11-18T09:23:58.513Z,91.34
2023-11-18T09:26:39.322Z,91.47
2023-11-18T09:29:10.009Z,91.38
2023-11-18T09:31:38.794Z,91.37
2023-11-18T09:34:07.781Z,91.18
2023-11-18T09:36:35.172Z,91.36
2023-11-18T09:39:04.799Z,91.29
2023-11-18T09:41:33.495Z,91.34
2023-11-18T09:44:04.826Z,91.40
2023-11-18T09:46:41.935Z,91.13
2023-11-18T09:49:18.786Z,91.21
2023-11-18T09:51:49.684Z,91.02
2023-11-18T09:54:25.148Z,91.32
2023-11-18T09:57:09.544Z,91.37
2023-11-18T09:59:46.010Z,91.39
2023-11-18T10:02:15.098Z,91.29
2023-11-18T10:05:23.814Z,91.54
2023-11-18T10:07:52.347Z,91.13
2023-11-18T10:10:22.045Z,91.26
2023-11-18T10:12:59.428Z,91.08
2023-11-18T10:15:28.241Z,91.22
2023-11-18T10:17:58.732Z,91.14
2023-11-18T10:20:45.948Z,91.41
2023-11-18T10:23:15.739Z,91.33
2023-11-18T10:25:47.648Z,91.31
2023-11-18T10:28:22.841Z,91.46
2023-11-18T10:30:49.882Z,91.09
2023-11-18T10:33:18.916Z,91.28
2023-11-18T10:35:52.498Z,91.25
2023-11-18T10:38:19.883Z,91.57
2023-11-18T10:40:47.838Z,91.45
2023-11-18T10:43:18.159Z,91.66
2023-11-18T10:45:48.134Z,91.56
2023-11-18T10:48:17.826Z,91.83
2023-11-18T10:50:51.191Z,91.91
2023-11-18T10:53:20.078Z,91.79
2023-11-18T10:55:47.292Z,92.06
2023-11-18T10:58:15.705Z,92.00
2023-11-18T11:00:50.355Z,92.12
2023-11-18T11:03:17.496Z,91.87
2023-11-18T11:05:45.130Z,91.80
2023-11-18T11:08:15.479Z,91.82
2023-11-18T11:10:42.992Z,91.89
2023-11-18T11:13:10.666Z,92.05
2023-11-18T11:15:51.700Z,92.04
2023-11-18T11:18:36.668Z,91.87
2023-11-18T11:21:17.177Z,91.94
2023-11-18T11:23:58.871Z,91.85
2023-11-18T11:26:40.170Z,92.11
2023-11-18T11:29:21.292Z,92.22
2023-11-18T11:31:58.601Z,92.04
2023-11-18T11:34:30.817Z,92.52
2023-11-18T11:37:00.573Z,92.51
2023-11-18T11:39:31.359Z,92.25
2023-11-18T11:42:00.154Z,92.25
2023-11-18T11:44:32.142Z,92.42
2023-11-18T11:47:01.946Z,92.40
2023-11-18T11:49:38.300Z,92.37
2023-11-18T11:52:16.458Z,92.63
2023-11-18T11:54:51.175Z,92.70
2023-11-18T11:57:18.045Z,92.70
2023-11-18T11:59:58.743Z,92.81
2023-11-18T12:02:30.842Z,92.78
2023-11-18T12:05:00.562Z,93.01
2023-11-18T12:07:36.126Z,92.84
2023-11-18T12:10:08.824Z,93.14
2023-11-18T12:12:36.069Z,93.16
2023-11-18T12:15:26.344Z,92.80
2023-11-18T12:18:18.997Z,93.17
2023-11-18T12:20:56.875Z,93.10
2023-11-18T12:23:27.333Z,93.48
2023-11-18T12:25:59.000Z,93.14
2023-11-18T12:28:37.080Z,93.11
2023-11-18T12:31:14.593Z,93.13
2023-11-18T12:34:03.794Z,93.35
2023-11-18T12:37:13.521Z,93.59
2023-11-18T12:40:25.507Z,93.55
2023-11-18T12:43:08.905Z,93.33
2023-11-18T12:46:15.984Z,93.76
2023-11-18T12:48:47.881Z,93.40
2023-11-18T12:51:20.579Z,93.74
2023-11-18T12:53:50.198Z,93.78
2023-11-18T12:56:20.219Z,93.73
2023-11-18T12:58:48.761Z,93.74
2023-11-18T13:01:17.252Z,93.89
2023-11-18T13:03:45.427Z,93.97
2023-11-18T13:06:13.146Z,94.42
2023-11-18T13:08:40.978Z,94.29
2023-11-18T13:11:14.047Z,94.46
2023-11-18T13:13:41.870Z,94.46
2023-11-18T13:16:10.782Z,94.29
2023-11-18T13:18:45.368Z,94.58
2023-11-18T13:21:16.553Z,94.78
2023-11-18T13:23:46.604Z,94.55
2023-11-18T13:26:13.501Z,95.03
2023-11-18T13:28:40.557Z,94.73
2023-11-18T13:31:10.868Z,94.58
2023-11-18T13:33:40.653Z,94.72
2023-11-18T13:36:11.272Z,94.76
2023-11-18T13:38:38.717Z,94.82
2023-11-18T13:41:06.363Z,94.85
2023-11-18T13:43:43.211Z,94.97
2023-11-18T13:46:13.409Z,94.92
2023-11-18T13:48:41.999Z,94.96
2023-11-18T13:51:13.987Z,94.98
2023-11-18T13:53:42.076Z,95.04
2023-11-18T13:56:13.653Z,95.23
2023-11-18T13:58:41.165Z,95.13
2023-11-18T14:01:09.184Z,95.15
2023-11-18T14:03:38.188Z,95.17
2023-11-18T14:06:11.796Z,95.22
2023-11-18T14:08:39.283Z,95.35
2023-11-18T14:11:13.664Z,95.34
2023-11-18T14:13:43.673Z,95.48
2023-11-18T14:16:11.064Z,95.30
2023-11-18T14:18:38.030Z,95.29
2023-11-18T14:21:07.120Z,95.18
2023-11-18T14:23:35.428Z,95.14
2023-11-18T14:26:02.240Z,95.36
2023-11-18T14:28:32.236Z,95.08
2023-11-18T14:30:59.105Z,95.30
2023-11-18T14:33:26.088Z,95.47
2023-11-18T14:35:53.077Z,95.25
2023-11-18T14:38:22.284Z,95.47
2023-11-18T14:40:50.500Z,95.74
2023-11-18T14:43:18.106Z,95.33
2023-11-18T14:45:44.900Z,95.48
2023-11-18T14:48:12.168Z,95.49
2023-11-18T14:50:39.607Z,95.45
2023-11-18T14:53:07.143Z,95.46
2023-11-18T14:55:34.329Z,95.39
2023-11-18T14:58:02.663Z,95.37
2023-11-18T15:00:33.363Z,95.63
2023-11-18T15:03:02.286Z,95.52
2023-11-18T15:05:32.290Z,95.60
2023-11-18T15:08:02.272Z,95.68
2023-11-18T15:10:32.191Z,95.59
2023-11-18T15:13:04.683Z,95.93
2023-11-18T15:15:33.445Z,95.80
2023-11-18T15:18:07.456Z,95.98
2023-11-18T15:20:36.622Z,95.88
2023-11-18T15:23:04.199Z,95.96
2023-11-18T15:25:31.608Z,95.59
2023-11-18T15:27:59.933Z,95.93
2023-11-18T15:30:29.818Z,95.64
2023-11-18T15:32:58.999Z,95.64
2023-11-18T15:35:26.482Z,95.63
2023-11-18T15:37:55.825Z,95.43
2023-11-18T15:40:27.093Z,95.70
2023-11-18T15:42:55.119Z,95.96
2023-11-18T15:45:26.275Z,95.79
2023-11-18T15:47:56.760Z,95.80
2023-11-18T15:50:23.754Z,95.86
2023-11-18T15:52:55.059Z,95.65
2023-11-18T15:55:22.853Z,95.72
2023-11-18T15:57:54.427Z,95.70
2023-11-18T16:00:21.881Z,95.75
2023-11-18T16:02:52.272Z,95.76
2023-11-18T16:05:27.758Z,95.43
2023-11-18T16:07:56.137Z,95.67
2023-11-18T16:10:24.603Z,95.50
2023-11-18T16:12:52.723Z,95.50
2023-11-18T16:15:20.896Z,95.39
2023-11-18T16:17:48.633Z,95.54
2023-11-18T16:20:18.512Z,95.45
2023-11-18T16:22:49.420Z,95.88
2023-11-18T16:25:19.321Z,95.80
2023-11-18T16:27:46.499Z,95.83
2023-11-18T16:30:14.085Z,96.06
2023-11-18T16:32:41.417Z,96.00
2023-11-18T16:35:17.484Z,95.89
2023-11-18T16:37:44.467Z,95.89
2023-11-18T16:40:17.637Z,95.60
2023-11-18T16:42:44.982Z,95.78
2023-11-18T16:45:12.473Z,95.93
2023-11-18T16:47:41.712Z,95.68
2023-11-18T16:50:09.504Z,95.77
2023-11-18T16:52:42.231Z,95.62
2023-11-18T16:55:10.268Z,95.71
2023-11-18T16:57:39.081Z,95.73
2023-11-18T17:00:16.858Z,95.78
2023-11-18T17:02:44.808Z,95.84
2023-11-18T17:05:11.732Z,95.94
2023-11-18T17:07:38.690Z,95.96
2023-11-18T17:10:12.482Z,95.94
2023-11-18T17:12:42.442Z,95.91
2023-11-18T17:15:14.405Z,95.96
2023-11-18T17:17:41.828Z,95.94
2023-11-18T17:20:15.876Z,95.85
2023-11-18T17:22:43.573Z,95.86
2023-11-18T17:25:14.459Z,95.97
2023-11-18T17:27:43.913Z,95.96
2023-11-18T17:30:17.417Z,96.07
2023-11-18T17:32:46.678Z,95.86
2023-11-18T17:35:17.126Z,96.00
2023-11-18T17:37:45.244Z,96.00
2023-11-18T17:40:12.906Z,96.01
2023-11-18T17:42:40.594Z,96.09
2023-11-18T17:45:10.325Z,95.73
2023-11-18T17:47:39.182Z,96.02
2023-11-18T17:50:10.114Z,96.07
2023-11-18T17:52:37.216Z,96.11
2023-11-18T17:55:04.954Z,96.03
2023-11-18T17:57:31.925Z,96.09
2023-11-18T17:59:58.841Z,95.85
2023-11-18T18:02:27.483Z,96.37
2023-11-18T18:04:54.337Z,96.08
2023-11-18T18:07:21.094Z,95.90
2023-11-18T18:09:47.807Z,96.16
2023-11-18T18:12:14.633Z,95.78
2023-11-18T18:14:41.469Z,95.83
2023-11-18T18:17:08.481Z,95.82
2023-11-18T18:19:38.149Z,95.73
2023-11-18T18:22:05.119Z,96.12
2023-11-18T18:24:34.370Z,95.85
2023-11-18T18:27:01.323Z,96.06
2023-11-18T18:29:28.684Z,95.71
2023-11-18T18:31:55.724Z,96.00
2023-11-18T18:34:22.457Z,95.64
2023-11-18T18:36:50.882Z,96.03
2023-11-18T18:39:47.929Z,95.63
2023-11-18T18:42:14.867Z,95.85
2023-11-18T18:44:42.078Z,95.92
2023-11-18T18:47:09.931Z,95.94
2023-11-18T18:49:37.659Z,95.82
2023-11-18T18:52:06.273Z,95.80
2023-11-18T18:54:38.259Z,95.81
2023-11-18T18:57:06.837Z,95.70
2023-11-18T18:59:33.687Z,95.81
2023-11-18T19:02:01.471Z,96.29
2023-11-18T19:04:28.280Z,96.01
2023-11-18T19:06:56.216Z,95.91
2023-11-18T19:09:24.721Z,96.35
2023-11-18T19:11:51.871Z,96.27
2023-11-18T19:14:21.405Z,96.16
2023-11-18T19:16:48.630Z,96.43
2023-11-18T19:19:18.385Z,96.34
2023-11-18T19:21:45.335Z,96.18
2023-11-18T19:24:15.652Z,96.64
2023-11-18T19:26:43.812Z,96.30
2023-11-18T19:29:10.682Z,96.37
2023-11-18T19:31:37.487Z,96.74
2023-11-18T19:34:04.648Z,96.54
2023-11-18T19:36:31.740Z,96.49
2023-11-18T19:38:58.563Z,96.60
2023-11-18T19:41:25.336Z,96.58
2023-11-18T19:43:54.313Z,96.68
2023-11-18T19:46:22.247Z,96.65
2023-11-18T19:48:49.026Z,96.89
2023-11-18T19:51:15.830Z,97.17
2023-11-18T19:53:42.574Z,97.01
2023-11-18T19:56:10.751Z,96.75
2023-11-18T19:58:37.627Z,96.82
2023-11-18T20:01:06.499Z,97.20
2023-11-18T20:03:41.770Z,97.03
2023-11-18T20:06:08.830Z,97.52
2023-11-18T20:08:35.774Z,97.38
2023-11-18T20:11:04.436Z,97.66
2023-11-18T20:13:31.882Z,97.73
2023-11-18T20:15:58.733Z,97.71
2023-11-18T20:18:26.964Z,97.76
2023-11-18T20:20:55.587Z,97.44
2023-11-18T20:23:24.101Z,97.87
2023-11-18T20:25:51.103Z,97.51
2023-11-18T20:28:17.862Z,97.73
2023-11-18T20:30:44.900Z,97.54
2023-11-18T20:33:13.336Z,97.61
2023-11-18T20:35:41.842Z,97.94
2023-11-18T20:38:08.801Z,98.01
2023-11-18T20:40:35.588Z,97.85
2023-11-18T20:43:04.061Z,97.86
2023-11-18T20:45:30.848Z,98.38
2023-11-18T20:47:57.898Z,98.07
2023-11-18T20:50:25.833Z,98.40
2023-11-18T20:52:54.126Z,98.59
2023-11-18T20:57:50.903Z,98.30
2023-11-18T21:00:18.488Z,98.25
2023-11-18T21:02:47.587Z,98.67
2023-11-18T21:05:15.201Z,98.73
2023-11-18T21:07:42.902Z,98.52
2023-11-18T21:10:17.367Z,98.51
2023-11-18T21:12:45.002Z,98.52
2023-11-18T21:15:13.548Z,98.48
2023-11-18T21:17:40.600Z,98.35
2023-11-18T21:20:13.906Z,98.51
2023-11-18T21:22:42.066Z,98.54
2023-11-18T21:25:12.679Z,98.42
2023-11-18T21:27:41.109Z,98.51
2023-11-18T21:30:12.061Z,98.83
2023-11-18T21:32:46.610Z,98.96
2023-11-18T21:35:15.996Z,99.20
2023-11-18T21:37:43.352Z,99.09
2023-11-18T21:40:14.414Z,99.05
2023-11-18T21:42:43.297Z,99.20
2023-11-18T21:45:31.363Z,99.29
2023-11-18T21:48:02.226Z,99.25
2023-11-18T21:50:29.411Z,98.88
2023-11-18T21:52:56.261Z,98.59
2023-11-18T21:55:23.218Z,98.94
2023-11-18T21:57:51.512Z,99.18
2023-11-18T22:00:19.013Z,98.86
2023-11-18T22:02:47.289Z,99.07
2023-11-18T22:05:14.760Z,98.97
2023-11-18T22:07:43.072Z,99.12
2023-11-18T22:10:16.624Z,99.21
2023-11-18T22:12:43.558Z,99.19
2023-11-18T22:15:17.344Z,99.24
2023-11-18T22:17:45.042Z,99.25
2023-11-18T22:20:13.525Z,99.09
2023-11-18T22:22:40.800Z,99.30
2023-11-18T22:25:09.213Z,99.04
2023-11-18T22:27:37.388Z,99.43
2023-11-18T22:30:05.141Z,99.38
2023-11-18T22:32:34.614Z,99.52
2023-11-18T22:35:02.017Z,99.57
2023-11-18T22:37:28.912Z,99.43
2023-11-18T22:39:58.050Z,99.63
2023-11-18T22:42:26.034Z,99.58
2023-11-18T22:44:52.939Z,99.62
2023-11-18T22:47:20.532Z,99.56
2023-11-18T22:49:48.701Z,99.65
2023-11-18T22:52:15.433Z,99.99
2023-11-18T22:54:42.470Z,99.76
2023-11-18T22:57:11.187Z,99.93
2023-11-18T22:59:38.105Z,100.00
2023-11-18T23:02:04.981Z,100.00
2023-11-18T23:04:31.807Z,100.00
2023-11-18T23:07:00.200Z,100.00
2023-11-18T23:09:27.803Z,100.00
2023-11-18T23:11:59.520Z,100.00
2023-11-18T23:14:26.357Z,100.00
2023-11-18T23:16:54.557Z,100.00
2023-11-18T23:19:21.743Z,100.00
2023-11-18T23:21:48.627Z,100.00
2023-11-18T23:24:16.876Z,100.00
2023-11-18T23:26:43.686Z,100.00
2023-11-18T23:29:10.772Z,100.00
2023-11-18T23:31:37.757Z,100.00
2023-11-18T23:34:05.535Z,100.00
2023-11-18T23:36:32.783Z,100.00
2023-11-18T23:39:03.952Z,100.00
2023-11-18T23:41:32.445Z,100.00
2023-11-18T23:43:59.797Z,100.00
2023-11-18T23:46:28.138Z,100.00
2023-11-18T23:48:55.276Z,100.00
2023-11-18T23:51:22.358Z,100.00
2023-11-18T23:53:49.098Z,100.00
2023-11-18T23:56:16.119Z,100.00
2023-11-18T23:58:44.209Z,100.00
